Time,TemperatureF,DewpointF,PressureIn,WindDirection,WindDirectionDegrees,WindSpeedMPH,WindSpeedGustMPH,Humidity,HourlyPrecipIn,Conditions,Clouds,dailyrainin,SoftwareType,DateUTC
2013-05-26 00:56:00,76.9,62.0,30.13,NE,36,8.0,12.0,60,0.00,,FEW031,0.00,VWS V14.00,2013-05-26 04:56:00,
2013-05-26 01:56:00,76.9,60.0,30.12,East,82,2.0,11.0,56,0.00,,SCT055,0.00,VWS V14.00,2013-05-26 05:56:00,
2013-05-26 02:56:00,76.0,62.5,30.10,ENE,60,0.0,10.0,63,0.00,,FEW035,0.00,VWS V14.00,2013-05-26 06:56:00,
2013-05-26 03:56:00,75.6,62.6,30.08,NE,41,4.0,10.0,64,0.00,,FEW035,0.00,VWS V14.00,2013-05-26 07:56:00,
2013-05-26 04:56:00,75.7,64.8,30.09,ENE,69,2.0,10.0,69,0.00,,CLR,0.00,VWS V14.00,2013-05-26 08:56:00,
2013-05-26 05:56:00,76.2,66.1,30.08,ENE,65,2.0,10.0,71,0.00,,FEW035,0.00,VWS V14.00,2013-05-26 09:56:00,
2013-05-26 06:56:00,76.3,67.8,30.09,ENE,78,4.0,10.0,75,0.00,,FEW034,0.00,VWS V14.00,2013-05-26 10:56:00,
2013-05-26 07:56:00,78.5,65.8,30.10,East,97,3.0,11.0,65,0.00,,SCT033,0.00,VWS V14.00,2013-05-26 11:56:00,
2013-05-26 08:56:00,80.0,65.4,30.12,ENE,76,10.0,11.0,61,0.00,,SCT033,0.00,VWS V14.00,2013-05-26 12:56:00,
2013-05-26 09:56:00,80.8,66.6,30.14,ENE,73,4.0,13.0,62,0.00,,BKN250,0.00,VWS V14.00,2013-05-26 13:56:00,
2013-05-26 10:56:00,81.4,65.7,30.15,East,88,9.0,13.0,59,0.00,,BKN250,0.00,VWS V14.00,2013-05-26 14:56:00,
2013-05-26 11:56:00,80.2,67.8,30.15,ENE,69,8.0,14.0,66,0.00,,BKN050,0.00,VWS V14.00,2013-05-26 15:56:00,
2013-05-26 12:56:00,81.9,67.1,30.15,ENE,75,12.0,16.0,61,0.00,,BKN250,0.00,VWS V14.00,2013-05-26 16:56:00,
2013-05-26 13:56:00,81.7,66.9,30.14,NE,40,4.0,16.0,61,0.00,,BKN220,0.00,VWS V14.00,2013-05-26 17:56:00,
2013-05-26 14:56:00,81.6,66.9,30.13,ENE,76,5.0,15.0,61,0.00,,BKN230,0.00,VWS V14.00,2013-05-26 18:56:00,
2013-05-26 15:56:00,82.1,66.4,30.11,NE,41,11.0,17.0,59,0.00,,BKN220,0.00,VWS V14.00,2013-05-26 19:56:00,
2013-05-26 16:56:00,81.2,65.5,30.11,NE,37,6.0,15.0,59,0.00,,BKN220,0.00,VWS V14.00,2013-05-26 20:56:00,
2013-05-26 17:56:00,80.2,65.1,30.10,NE,54,8.0,14.0,60,0.00,,BKN250,0.00,VWS V14.00,2013-05-26 21:56:00,
2013-05-26 18:56:00,78.8,64.7,30.09,NE,44,9.0,13.0,62,0.00,,BKN250,0.00,VWS V14.00,2013-05-26 22:56:00,
2013-05-26 19:56:00,78.0,64.8,30.10,ENE,78,3.0,14.0,64,0.00,,BKN250,0.00,VWS V14.00,2013-05-26 23:56:00,
2013-05-26 20:56:00,77.4,65.2,30.10,ENE,61,5.0,14.0,66,0.00,,BKN250,0.00,VWS V14.00,2013-05-27 00:56:00,
2013-05-26 21:56:00,77.3,65.1,30.12,ENE,63,3.0,12.0,66,0.00,,BKN250,0.00,VWS V14.00,2013-05-27 01:56:00,
2013-05-26 22:56:00,77.2,64.5,30.14,East,82,10.0,13.0,65,0.00,,BKN250,0.00,VWS V14.00,2013-05-27 02:56:00,
2013-05-26 23:57:00,76.8,64.2,30.13,ENE,68,3.0,13.0,65,0.00,,BKN250,0.00,VWS V14.00,2013-05-27 03:57:00,